Time;durP1;ratioP1;P1;durP2;ratioP2;P2;SDS_P1;SDS_P2;PMS_P1;PMS_P2;Temp;Humidity;BMP_temperature;BMP_pressure;BME280_temperature;BME280_humidity;BME280_pressure;Samples;Min_cycle;Max_cycle;Signal;HPM_P1;HPM_P2
2021/12/27 05:06:34;;;;;;;;;6.33;4.67;;;;;;;;5940303;46;10001148;-53
2021/12/27 06:00:16;;;;;;;;;10.00;9.00;;;;;;;;6496305;46;9020;-53
2021/12/27 06:06:21;;;;;;;;;9.67;9.00;;;;;;;;6493760;39;8922;-49
2021/12/27 06:12:24;;;;;;;;;13.00;13.00;;;;;;;;6495408;39;9576;-51
2021/12/27 06:18:26;;;;;;;;;31.00;26.33;;;;;;;;6493646;31;8850;-50
2021/12/27 06:24:28;;;;;;;;;15.00;15.00;;;;;;;;6491890;46;8925;-52
2021/12/27 06:30:30;;;;;;;;;8.00;8.00;;;;;;;;6492930;31;8887;-55
2021/12/27 06:36:32;;;;;;;;;19.00;16.00;;;;;;;;6492364;46;8882;-49
2021/12/27 06:42:34;;;;;;;;;16.50;16.50;;;;;;;;6492580;39;9502;-57
2021/12/27 06:48:36;;;;;;;;;11.00;11.00;;;;;;;;6492062;46;8882;-51
2021/12/27 06:54:40;;;;;;;;;15.75;14.50;;;;;;;;6492496;39;8922;-53
2021/12/27 07:00:43;;;;;;;;;14.25;13.75;;;;;;;;6493300;39;8879;-51
2021/12/27 07:06:45;;;;;;;;;24.00;18.33;;;;;;;;6492937;39;9110;-53
2021/12/27 07:12:49;;;;;;;;;18.25;16.50;;;;;;;;6491905;39;8902;-49
2021/12/27 07:18:51;;;;;;;;;17.00;16.00;;;;;;;;6492601;39;9454;-52
2021/12/27 07:24:53;;;;;;;;;15.33;15.00;;;;;;;;6491479;39;8917;-50
2021/12/27 07:30:55;;;;;;;;;11.33;11.33;;;;;;;;6492867;39;8937;-48
2021/12/27 07:36:57;;;;;;;;;22.00;22.00;;;;;;;;6491005;39;8972;-48
2021/12/27 07:42:59;;;;;;;;;24.67;20.33;;;;;;;;6490594;39;9545;-51
2021/12/27 07:49:02;;;;;;;;;19.75;13.50;;;;;;;;6488177;39;8952;-52
2021/12/27 07:55:06;;;;;;;;;15.75;14.50;;;;;;;;6490250;39;8945;-49
2021/12/27 08:01:10;;;;;;;;;18.75;18.75;;;;;;;;6491094;39;9003;-46
2021/12/27 08:07:13;;;;;;;;;29.67;25.00;;;;;;;;6484137;39;8975;-48
2021/12/27 08:13:16;;;;;;;;;15.75;15.75;;;;;;;;6478367;46;8992;-49
2021/12/27 08:19:18;;;;;;;;;20.00;19.50;;;;;;;;6482245;39;8953;-49
2021/12/27 08:25:21;;;;;;;;;21.50;21.50;;;;;;;;6462302;31;9053;-46
2021/12/27 08:31:24;;;;;;;;;30.50;27.00;;;;;;;;6463901;46;8913;-53
2021/12/27 08:37:27;;;;;;;;;20.00;15.50;;;;;;;;6480975;46;8995;-51
2021/12/27 08:43:29;;;;;;;;;21.75;19.50;;;;;;;;6479639;39;8914;-52
2021/12/27 08:49:31;;;;;;;;;23.50;22.00;;;;;;;;6479075;46;8917;-54
2021/12/27 08:55:51;;;;;;;;;19.50;19.00;;;;;;;;6480206;39;10179;-51
2021/12/27 09:01:53;;;;;;;;;20.00;18.67;;;;;;;;6480518;39;9566;-51
2021/12/27 09:07:55;;;;;;;;;25.00;21.00;;;;;;;;6480448;39;8944;-53
2021/12/27 09:13:58;;;;;;;;;26.50;23.50;;;;;;;;6479531;31;8999;-55
2021/12/27 09:20:18;;;;;;;;;20.50;20.00;;;;;;;;6480732;39;8918;-53
2021/12/27 09:26:22;;;;;;;;;33.67;25.00;;;;;;;;6481015;31;8984;-50
2021/12/27 09:32:25;;;;;;;;;20.67;19.67;;;;;;;;6484876;39;8926;-51
2021/12/27 09:38:27;;;;;;;;;12.67;12.67;;;;;;;;6488074;46;8964;-54
2021/12/27 09:44:29;;;;;;;;;30.00;22.33;;;;;;;;6486840;39;8906;-50
2021/12/27 09:50:42;;;;;;;;;24.25;22.50;;;;;;;;6478716;39;8953;-51
2021/12/27 09:56:44;;;;;;;;;31.50;26.25;;;;;;;;6479736;39;9502;-56
2021/12/27 10:02:51;;;;;;;;;28.75;23.75;;;;;;;;6480400;31;8952;-53
2021/12/27 10:08:56;;;;;;;;;24.00;24.00;;;;;;;;6481585;31;8901;-53
2021/12/27 10:15:04;;;;;;;;;24.75;20.00;;;;;;;;6477221;39;8955;-50
2021/12/27 10:21:14;;;;;;;;;24.75;24.25;;;;;;;;6473323;46;8910;-50
2021/12/27 10:27:17;;;;;;;;;28.33;24.33;;;;;;;;6465369;39;8905;-54
2021/12/27 10:33:24;;;;;;;;;24.75;22.75;;;;;;;;6474299;31;8922;-48
2021/12/27 10:39:41;;;;;;;;;23.00;21.50;;;;;;;;6481133;31;8902;-48
2021/12/27 10:45:47;;;;;;;;;28.75;24.00;;;;;;;;6470164;39;9607;-49
2021/12/27 10:51:49;;;;;;;;;33.33;26.33;;;;;;;;6479078;39;8919;-48
2021/12/27 10:58:11;;;;;;;;;31.00;23.33;;;;;;;;6475037;39;8936;-48
2021/12/27 11:04:19;;;;;;;;;25.50;25.00;;;;;;;;6480799;39;8953;-51
2021/12/27 11:10:21;;;;;;;;;27.25;21.00;;;;;;;;6479799;31;8996;-51
2021/12/27 11:16:27;;;;;;;;;27.00;22.25;;;;;;;;6476375;46;9008;-53
2021/12/27 11:22:31;;;;;;;;;24.75;22.50;;;;;;;;6482292;39;8925;-51
2021/12/27 11:28:36;;;;;;;;;17.50;17.50;;;;;;;;6476988;46;8964;-51
2021/12/27 11:34:54;;;;;;;;;19.75;16.25;;;;;;;;6479580;46;8984;-51
2021/12/27 11:40:57;;;;;;;;;22.00;22.00;;;;;;;;6479374;46;8913;-48
2021/12/27 11:46:59;;;;;;;;;18.00;16.25;;;;;;;;6480770;39;8921;-50
2021/12/27 11:53:06;;;;;;;;;21.00;18.75;;;;;;;;6478252;31;8941;-50
2021/12/27 11:59:35;;;;;;;;;19.75;18.25;;;;;;;;6480208;46;8948;-51
2021/12/27 12:05:48;;;;;;;;;21.00;18.75;;;;;;;;6482410;39;8922;-51
2021/12/27 12:12:03;;;;;;;;;14.00;14.00;;;;;;;;6482560;39;8952;-49
2021/12/27 12:18:17;;;;;;;;;12.25;11.75;;;;;;;;6470442;39;8945;-52
2021/12/27 12:24:22;;;;;;;;;17.75;15.50;;;;;;;;6459143;39;8948;-52
2021/12/27 12:30:32;;;;;;;;;21.00;18.67;;;;;;;;6457346;39;9666;-55
2021/12/27 12:36:45;;;;;;;;;21.50;18.00;;;;;;;;6464319;46;8961;-55
2021/12/27 12:42:49;;;;;;;;;20.50;20.50;;;;;;;;6464378;39;8969;-57
2021/12/27 12:48:59;;;;;;;;;18.67;17.33;;;;;;;;6466111;39;9660;-58
2021/12/27 12:55:02;;;;;;;;;22.00;18.00;;;;;;;;6466420;39;9004;-57
2021/12/27 13:01:10;;;;;;;;;21.75;20.00;;;;;;;;6466079;39;8946;-55
2021/12/27 13:07:34;;;;;;;;;13.00;12.67;;;;;;;;6465533;46;8922;-58
2021/12/27 13:13:36;;;;;;;;;15.67;15.00;;;;;;;;6466612;39;9667;-53
2021/12/27 13:20:12;;;;;;;;;20.33;19.00;;;;;;;;6464669;31;8921;-55
2021/12/27 13:26:18;;;;;;;;;17.00;17.00;;;;;;;;6466452;39;8961;-54
2021/12/27 13:32:20;;;;;;;;;20.33;18.00;;;;;;;;6304810;36;10000638;-54
2021/12/27 13:38:35;;;;;;;;;19.67;19.67;;;;;;;;6465903;39;8914;-55
2021/12/27 13:44:37;;;;;;;;;21.67;21.67;;;;;;;;6465600;39;9026;-54
2021/12/27 13:50:41;;;;;;;;;22.67;20.67;;;;;;;;6465125;39;8996;-57
2021/12/27 13:56:47;;;;;;;;;20.33;20.00;;;;;;;;6464676;39;8965;-55
2021/12/27 14:02:50;;;;;;;;;3.67;3.00;;;;;;;;6465306;39;8917;-53
2021/12/27 14:08:59;;;;;;;;;23.25;18.25;;;;;;;;6465449;47;9052;-56
2021/12/27 14:15:06;;;;;;;;;19.25;18.00;;;;;;;;6465697;39;8982;-55
2021/12/27 14:21:09;;;;;;;;;20.33;20.33;;;;;;;;6465088;39;9666;-56
2021/12/27 14:27:29;;;;;;;;;25.67;21.67;;;;;;;;6468313;39;9003;-54
2021/12/27 14:33:33;;;;;;;;;24.00;21.50;;;;;;;;6468399;39;9009;-50
2021/12/27 14:39:36;;;;;;;;;24.25;23.50;;;;;;;;6467905;31;8956;-53
2021/12/27 14:45:40;;;;;;;;;24.67;24.67;;;;;;;;6469447;39;8902;-53
2021/12/27 14:51:44;;;;;;;;;21.00;17.00;;;;;;;;6466453;31;8948;-55
2021/12/27 14:57:48;;;;;;;;;26.33;25.00;;;;;;;;6467223;46;9105;-52
2021/12/27 15:03:50;;;;;;;;;28.00;21.00;;;;;;;;6467731;39;8934;-54
2021/12/27 15:09:52;;;;;;;;;22.67;19.33;;;;;;;;6468481;31;9050;-54
2021/12/27 15:15:56;;;;;;;;;30.00;25.00;;;;;;;;6468200;39;8922;-54
2021/12/27 15:21:59;;;;;;;;;32.33;25.67;;;;;;;;6467733;39;8917;-55
2021/12/27 15:28:01;;;;;;;;;23.50;23.50;;;;;;;;6468558;39;8986;-55
2021/12/27 15:34:04;;;;;;;;;24.00;23.33;;;;;;;;6467318;39;8925;-53
2021/12/27 15:40:10;;;;;;;;;18.00;18.00;;;;;;;;6468266;39;8912;-54
2021/12/27 15:46:12;;;;;;;;;24.67;22.00;;;;;;;;6468466;39;8917;-55
2021/12/27 15:52:16;;;;;;;;;17.67;13.67;;;;;;;;6467401;39;8972;-56
2021/12/27 15:58:19;;;;;;;;;19.00;18.00;;;;;;;;6467696;39;8961;-57
2021/12/27 16:04:21;;;;;;;;;21.00;21.00;;;;;;;;6468308;39;8976;-54
2021/12/27 16:10:27;;;;;;;;;24.67;24.00;;;;;;;;6468951;39;8933;-57
2021/12/27 16:16:29;;;;;;;;;22.67;21.00;;;;;;;;6469029;46;8929;-55
2021/12/27 16:22:32;;;;;;;;;32.33;27.67;;;;;;;;6466788;46;8964;-56
2021/12/27 16:28:36;;;;;;;;;22.33;21.67;;;;;;;;6469320;31;9000;-54
2021/12/27 16:34:38;;;;;;;;;22.00;22.00;;;;;;;;6468711;39;8949;-55
2021/12/27 16:40:41;;;;;;;;;31.67;30.33;;;;;;;;6467642;39;8929;-54
2021/12/27 16:46:43;;;;;;;;;29.67;24.33;;;;;;;;6467755;39;8921;-57
2021/12/27 16:52:47;;;;;;;;;24.33;21.67;;;;;;;;6468036;39;8925;-55
2021/12/27 16:58:49;;;;;;;;;27.33;25.67;;;;;;;;6467911;31;8970;-61
2021/12/27 17:04:53;;;;;;;;;25.67;22.67;;;;;;;;6466265;39;9716;-55
2021/12/27 17:10:55;;;;;;;;;27.33;20.33;;;;;;;;6468970;39;8965;-54
2021/12/27 17:16:57;;;;;;;;;25.00;21.00;;;;;;;;6467719;39;9036;-53
2021/12/27 17:23:03;;;;;;;;;19.67;18.00;;;;;;;;6466021;31;9013;-53
2021/12/27 17:29:07;;;;;;;;;25.67;22.67;;;;;;;;6467351;39;9748;-52
2021/12/27 17:35:11;;;;;;;;;37.33;28.67;;;;;;;;6467107;47;8956;-56
2021/12/27 17:41:16;;;;;;;;;27.00;24.67;;;;;;;;6503518;36;8960;-57
2021/12/27 17:47:19;;;;;;;;;22.67;19.67;;;;;;;;6466635;47;8925;-56
2021/12/27 17:53:22;;;;;;;;;22.25;19.25;;;;;;;;6467794;39;8978;-57
2021/12/27 17:59:25;;;;;;;;;21.75;20.50;;;;;;;;6469604;31;8991;-57
2021/12/27 18:05:28;;;;;;;;;22.00;22.00;;;;;;;;6467572;31;8925;-55
2021/12/27 18:11:36;;;;;;;;;22.50;19.25;;;;;;;;6468968;39;8913;-54
2021/12/27 18:17:42;;;;;;;;;20.50;19.00;;;;;;;;6468666;39;9093;-55
2021/12/27 18:23:46;;;;;;;;;26.50;18.50;;;;;;;;6467401;39;8945;-53
2021/12/27 18:29:55;;;;;;;;;20.50;15.75;;;;;;;;6469063;39;8909;-56
2021/12/27 18:35:57;;;;;;;;;19.50;15.50;;;;;;;;6469953;39;8991;-54
2021/12/27 18:41:59;;;;;;;;;19.00;18.00;;;;;;;;6468725;46;8952;-53
2021/12/27 18:48:03;;;;;;;;;18.50;18.00;;;;;;;;6469765;39;9619;-53
2021/12/27 18:54:06;;;;;;;;;18.75;15.00;;;;;;;;6467639;39;8961;-53
2021/12/27 19:00:12;;;;;;;;;24.00;18.25;;;;;;;;6469495;39;9467;-56
2021/12/27 19:06:14;;;;;;;;;18.50;17.00;;;;;;;;6469377;39;8920;-57
2021/12/27 19:12:16;;;;;;;;;19.25;16.00;;;;;;;;6468970;39;9056;-55
2021/12/27 19:18:19;;;;;;;;;19.00;17.00;;;;;;;;6467683;39;8950;-57
2021/12/27 19:24:21;;;;;;;;;18.25;17.50;;;;;;;;6468090;46;9004;-54
2021/12/27 19:30:26;;;;;;;;;20.00;18.50;;;;;;;;6469849;39;8914;-54
2021/12/27 19:36:29;;;;;;;;;13.75;13.50;;;;;;;;6469163;39;8940;-55
2021/12/27 19:42:32;;;;;;;;;21.75;21.00;;;;;;;;6468158;31;8925;-58
2021/12/27 19:48:35;;;;;;;;;21.75;18.75;;;;;;;;6469313;39;9560;-55
2021/12/27 19:54:38;;;;;;;;;27.50;22.50;;;;;;;;6467388;31;9046;-54
2021/12/27 20:00:41;;;;;;;;;21.25;16.00;;;;;;;;6468311;39;8913;-58
2021/12/27 20:06:47;;;;;;;;;26.25;19.25;;;;;;;;6468171;39;9007;-57
2021/12/27 20:12:55;;;;;;;;;18.25;16.25;;;;;;;;6468028;39;9970;-55
2021/12/27 20:18:57;;;;;;;;;22.00;17.50;;;;;;;;6467009;39;9489;-56
2021/12/27 20:25:03;;;;;;;;;21.75;17.00;;;;;;;;6468415;39;8961;-58
2021/12/27 20:31:07;;;;;;;;;12.75;12.75;;;;;;;;6468810;46;9131;-57
2021/12/27 20:37:09;;;;;;;;;19.00;17.50;;;;;;;;6468038;39;8988;-53
2021/12/27 20:43:14;;;;;;;;;22.00;19.50;;;;;;;;6469278;31;9705;-53
2021/12/27 20:49:18;;;;;;;;;25.50;18.50;;;;;;;;6468704;46;8913;-54
2021/12/27 20:55:20;;;;;;;;;20.50;18.25;;;;;;;;6468212;39;9518;-54
2021/12/27 21:01:24;;;;;;;;;20.00;16.00;;;;;;;;6468585;39;8980;-55
2021/12/27 21:07:27;;;;;;;;;20.75;20.50;;;;;;;;6469329;31;8991;-56
2021/12/27 21:13:29;;;;;;;;;19.00;18.00;;;;;;;;6468506;39;8909;-57
2021/12/27 21:19:33;;;;;;;;;21.25;19.00;;;;;;;;6466607;46;8984;-56
2021/12/27 21:25:35;;;;;;;;;19.50;18.50;;;;;;;;6466882;39;8992;-56
2021/12/27 21:31:39;;;;;;;;;18.00;18.00;;;;;;;;6467428;39;9932;-55
2021/12/27 21:37:42;;;;;;;;;20.50;18.00;;;;;;;;6467891;39;8973;-55
2021/12/27 21:43:44;;;;;;;;;17.50;17.00;;;;;;;;6468573;39;8972;-53
2021/12/27 21:49:47;;;;;;;;;17.00;13.50;;;;;;;;6468315;47;8964;-54
2021/12/27 21:55:49;;;;;;;;;18.75;18.25;;;;;;;;6469044;39;9690;-59
2021/12/27 22:01:54;;;;;;;;;18.00;13.00;;;;;;;;6467332;39;9158;-55
2021/12/27 22:08:01;;;;;;;;;18.25;12.75;;;;;;;;6468102;39;8909;-55
2021/12/27 22:14:08;;;;;;;;;14.75;14.75;;;;;;;;6467540;31;8963;-55
2021/12/27 22:20:13;;;;;;;;;19.50;17.25;;;;;;;;6465527;31;8909;-53
2021/12/27 22:26:15;;;;;;;;;17.00;14.00;;;;;;;;6466344;39;9046;-58
2021/12/27 22:32:19;;;;;;;;;13.00;12.75;;;;;;;;6468459;39;8931;-56
2021/12/27 22:38:22;;;;;;;;;18.50;15.75;;;;;;;;6466868;31;9066;-55
2021/12/27 22:44:24;;;;;;;;;21.25;18.50;;;;;;;;6469393;39;8948;-58
2021/12/27 22:50:30;;;;;;;;;21.25;18.00;;;;;;;;6470504;39;8917;-55
2021/12/27 22:56:32;;;;;;;;;23.75;17.50;;;;;;;;6468306;39;8976;-55
2021/12/27 23:02:34;;;;;;;;;12.75;12.75;;;;;;;;6469517;31;8910;-54
2021/12/27 23:08:38;;;;;;;;;17.75;13.00;;;;;;;;6468902;46;8933;-56
2021/12/27 23:14:40;;;;;;;;;16.00;16.00;;;;;;;;6469037;31;9133;-58
2021/12/27 23:20:43;;;;;;;;;18.50;17.25;;;;;;;;6467725;31;8921;-56
2021/12/27 23:26:45;;;;;;;;;17.75;17.75;;;;;;;;6466313;46;9003;-54
2021/12/27 23:32:56;;;;;;;;;24.25;21.50;;;;;;;;6469989;31;9050;-56
2021/12/27 23:39:00;;;;;;;;;25.00;21.50;;;;;;;;6469126;46;9020;-55
2021/12/27 23:45:05;;;;;;;;;35.75;32.25;;;;;;;;6469827;39;8969;-57
2021/12/27 23:51:08;;;;;;;;;34.25;33.00;;;;;;;;6468062;39;8909;-57
2021/12/27 23:57:10;;;;;;;;;45.00;40.50;;;;;;;;6468737;31;9125;-56
